PWSweather.com
Personal Weather Stations
Station Observations
KILMORRI1
Goose Lake, Morris, IL 60450

Goose LakeMorris, IL 60450

Lat: 41.34, Lon: -88.3

Elevation: 523

Station Type:

Latest ConditionsUpdated 5:00:04 AM CST Wednesday, Dec 12, 2018
Currently Today's Max Today's Min Today's Average
Temperature 36.9°F2.7°C 37.5°F3.1°C 32.7°F0.4°C 35.8°F2.1°C
Dew Point 31.7°F-0.2°C 31.9°F-0.1°C 29.1°F-1.6°C 30.7°F-0.7°C
Winds 3.5 mph S5.6 kmh S 8.1 mph -13.0 kmh - - 3.7 mph 6.0 kmh
Wind Gusts 12.7 mph20.4 kmh 12.7 mph20.4 kmh - -
Humidity 81% 87% 79% 82%
Pressure 29.80 in1009.1 mb 29.95 in1014.2 mb 29.80 in1009.1 mb -
Hour Temp Dew Point Humidity Winds Wind Gusts Pressure Precip Precip Rate Daily Precip Total
05:00 AM 36.9°F2.7°C 31.7°F-0.2°C 81% 3.5 mph S5.6 kmh S 12.7 mph20.4 kmh 29.80 in1009.1 mb - 0.00 in0.0 mm 0.00 in0.0 mm
04:50 AM 37.2°F2.9°C 31.6°F-0.2°C 80% 4.6 mph SSE7.4 kmh SSE 6.9 mph11.1 kmh 29.80 in1009.1 mb - 0.00 in0.0 mm 0.00 in0.0 mm
04:40 AM 37.3°F2.9°C 31.7°F-0.2°C 80% 3.5 mph SSE5.6 kmh SSE 8.1 mph13.0 kmh 29.80 in1009.1 mb - 0.00 in0.0 mm 0.00 in0.0 mm
04:30 AM 37.5°F3.1°C 31.9°F-0.1°C 80% 8.1 mph S13.0 kmh S 11.5 mph18.5 kmh 29.81 in1009.5 mb - 0.00 in0.0 mm 0.00 in0.0 mm
04:20 AM 37.3°F2.9°C 31.7°F-0.2°C 80% 5.8 mph S9.3 kmh S 5.8 mph9.3 kmh 29.80 in1009.1 mb - 0.00 in0.0 mm 0.00 in0.0 mm
04:10 AM 37.2°F2.9°C 31.3°F-0.4°C 79% 8.1 mph S13.0 kmh S 11.5 mph18.5 kmh 29.82 in1009.8 mb - 0.00 in0.0 mm 0.00 in0.0 mm
04:00 AM 37.3°F2.9°C 31.4°F-0.3°C 79% 4.6 mph S7.4 kmh S 9.2 mph14.8 kmh 29.82 in1009.8 mb - 0.00 in0.0 mm 0.00 in0.0 mm
03:50 AM 37.5°F3.1°C 31.6°F-0.2°C 79% 5.8 mph S9.3 kmh S 8.1 mph13.0 kmh 29.82 in1009.8 mb - 0.00 in0.0 mm 0.00 in0.0 mm
03:40 AM 37.4°F3.0°C 31.5°F-0.3°C 79% 5.8 mph S9.3 kmh S 6.9 mph11.1 kmh 29.82 in1009.8 mb - 0.00 in0.0 mm 0.00 in0.0 mm
03:30 AM 37.3°F2.9°C 31.7°F-0.2°C 80% 4.6 mph S7.4 kmh S 8.1 mph13.0 kmh 29.83 in1010.2 mb - 0.00 in0.0 mm 0.00 in0.0 mm
03:20 AM 37.2°F2.9°C 31.6°F-0.2°C 80% 4.6 mph S7.4 kmh S 6.9 mph11.1 kmh 29.84 in1010.5 mb - 0.00 in0.0 mm 0.00 in0.0 mm
03:10 AM 37.1°F2.8°C 31.5°F-0.3°C 80% 3.5 mph SSE5.6 kmh SSE 10.4 mph16.7 kmh 29.84 in1010.5 mb - 0.00 in0.0 mm 0.00 in0.0 mm
03:00 AM 36.9°F2.7°C 31.3°F-0.4°C 80% 3.5 mph S5.6 kmh S 8.1 mph13.0 kmh 29.85 in1010.8 mb - 0.00 in0.0 mm 0.00 in0.0 mm
02:50 AM 36.4°F2.4°C 30.8°F-0.7°C 80% 3.5 mph S5.6 kmh S 4.6 mph7.4 kmh 29.85 in1010.8 mb - 0.00 in0.0 mm 0.00 in0.0 mm
02:40 AM 36.7°F2.6°C 31.1°F-0.5°C 80% 3.5 mph SSE5.6 kmh SSE 8.1 mph13.0 kmh 29.86 in1011.2 mb - 0.00 in0.0 mm 0.00 in0.0 mm
02:30 AM 36.5°F2.5°C 30.9°F-0.6°C 80% 3.5 mph SSE5.6 kmh SSE 9.2 mph14.8 kmh 29.87 in1011.5 mb - 0.00 in0.0 mm 0.00 in0.0 mm
02:20 AM 36.1°F2.3°C 30.8°F-0.7°C 81% 4.6 mph SSE7.4 kmh SSE 8.1 mph13.0 kmh 29.87 in1011.5 mb - 0.00 in0.0 mm 0.00 in0.0 mm
02:10 AM 36.4°F2.4°C 30.8°F-0.7°C 80% 3.5 mph SE5.6 kmh SE 5.8 mph9.3 kmh 29.88 in1011.9 mb - 0.00 in0.0 mm 0.00 in0.0 mm
02:00 AM 36.1°F2.3°C 30.8°F-0.7°C 81% 2.3 mph SSE3.7 kmh SSE 3.5 mph5.6 kmh 29.89 in1012.2 mb - 0.00 in0.0 mm 0.00 in0.0 mm
01:50 AM 35.5°F1.9°C 30.2°F-1.0°C 81% 2.3 mph SE3.7 kmh SE 4.6 mph7.4 kmh 29.89 in1012.2 mb - 0.00 in0.0 mm 0.00 in0.0 mm
01:40 AM 35.4°F1.9°C 30.4°F-0.9°C 82% 3.5 mph SE5.6 kmh SE 3.5 mph5.6 kmh 29.89 in1012.2 mb - 0.00 in0.0 mm 0.00 in0.0 mm
01:30 AM 35.1°F1.7°C 30.4°F-0.9°C 83% 1.2 mph SE1.9 kmh SE 2.3 mph3.7 kmh 29.91 in1012.9 mb - 0.00 in0.0 mm 0.00 in0.0 mm
01:20 AM 34.3°F1.3°C 30.0°F-1.1°C 84% 2.3 mph SE3.7 kmh SE 3.5 mph5.6 kmh 29.91 in1012.9 mb - 0.00 in0.0 mm 0.00 in0.0 mm
01:10 AM 33.8°F1.0°C 29.5°F-1.4°C 84% Calm Calm 2.3 mph3.7 kmh 29.91 in1012.9 mb - 0.00 in0.0 mm 0.00 in0.0 mm
01:00 AM 33.5°F0.8°C 29.5°F-1.4°C 85% 2.3 mph ESE3.7 kmh ESE 3.5 mph5.6 kmh 29.92 in1013.2 mb - 0.00 in0.0 mm 0.00 in0.0 mm
12:50 AM 33.4°F0.8°C 29.1°F-1.6°C 84% 2.3 mph SE3.7 kmh SE 3.5 mph5.6 kmh 29.92 in1013.2 mb - 0.00 in0.0 mm 0.00 in0.0 mm
12:40 AM 33.3°F0.7°C 29.3°F-1.5°C 85% 3.5 mph ESE5.6 kmh ESE 6.9 mph11.1 kmh 29.92 in1013.2 mb - 0.00 in0.0 mm 0.00 in0.0 mm
12:30 AM 33.1°F0.6°C 29.1°F-1.6°C 85% 2.3 mph SE3.7 kmh SE 3.5 mph5.6 kmh 29.93 in1013.5 mb - 0.00 in0.0 mm 0.00 in0.0 mm
12:20 AM 33.2°F0.7°C 29.5°F-1.4°C 86% 2.3 mph ESE3.7 kmh ESE 3.5 mph5.6 kmh 29.93 in1013.5 mb - 0.00 in0.0 mm 0.00 in0.0 mm
12:10 AM 33.0°F0.6°C 29.3°F-1.5°C 86% 2.3 mph ESE3.7 kmh ESE 4.6 mph7.4 kmh 29.94 in1013.9 mb - 0.00 in0.0 mm 0.00 in0.0 mm
12:00 AM 32.7°F0.4°C 29.2°F-1.6°C 87% 3.5 mph ESE5.6 kmh ESE 4.6 mph7.4 kmh 29.95 in1014.2 mb - 0.00 in0.0 mm 0.00 in0.0 mm